Time;durP1;ratioP1;P1;durP2;ratioP2;P2;SDS_P1;SDS_P2;PMS_P1;PMS_P2;Temp;Humidity;BMP_temperature;BMP_pressure;BME280_temperature;BME280_humidity;BME280_pressure;Samples;Min_cycle;Max_cycle;Signal;HPM_P1;HPM_P2
2023/09/07 00:01:28;;;;;;;20.77;13.63;;;;;;;29.88;74.82;100812.66;4891613;29;66276;-34
2023/09/07 00:03:59;;;;;;;24.40;13.88;;;;;;;30.00;75.17;100818.22;4880257;29;70239;-34
2023/09/07 00:06:29;;;;;;;25.60;14.43;;;;;;;30.03;77.87;100815.91;4885719;28;66712;-34
2023/09/07 00:08:59;;;;;;;24.42;16.13;;;;;;;30.12;78.77;100826.50;4907791;28;70852;-33
2023/09/07 00:11:30;;;;;;;24.17;16.98;;;;;;;30.15;78.76;100835.00;4906205;28;66333;-33
2023/09/07 00:14:00;;;;;;;24.67;16.80;;;;;;;30.17;79.89;100830.22;4913590;28;69322;-35
2023/09/07 00:16:35;;;;;;;21.55;15.57;;;;;;;30.13;80.32;100803.78;4917857;28;65319;-34
2023/09/07 00:19:06;;;;;;;31.55;17.90;;;;;;;30.21;80.40;100828.72;4906248;28;70463;-33
2023/09/07 00:21:37;;;;;;;27.13;17.00;;;;;;;30.25;80.84;100840.78;4919159;28;65237;-33
2023/09/07 00:24:07;;;;;;;26.25;17.00;;;;;;;30.09;79.84;100808.81;4914603;28;71786;-34
2023/09/07 00:26:37;;;;;;;32.40;19.73;;;;;;;30.24;81.93;100839.13;4922565;28;66766;-34
2023/09/07 00:29:07;;;;;;;32.55;18.60;;;;;;;30.33;82.05;100855.09;4916631;28;70084;-34
2023/09/07 00:31:38;;;;;;;27.40;17.38;;;;;;;30.34;82.17;100854.91;4920059;28;66319;-34
2023/09/07 00:34:07;;;;;;;29.00;19.23;;;;;;;30.37;80.63;100864.44;4920250;28;69754;-34
2023/09/07 00:36:38;;;;;;;21.52;16.58;;;;;;;30.33;81.85;100863.22;4917644;28;65628;-34
2023/09/07 00:39:08;;;;;;;26.75;17.40;;;;;;;30.30;81.74;100864.50;4920999;28;69968;-34
2023/09/07 00:41:38;;;;;;;24.45;15.05;;;;;;;30.35;81.56;100875.50;4912046;28;65839;-34
2023/09/07 00:44:08;;;;;;;23.13;15.18;;;;;;;30.33;82.26;100874.06;4917153;28;69588;-35
2023/09/07 00:46:38;;;;;;;22.30;15.35;;;;;;;30.32;81.85;100878.63;4918056;28;66403;-33
2023/09/07 00:49:08;;;;;;;20.80;14.10;;;;;;;30.34;81.05;100881.13;4920237;28;70020;-35
2023/09/07 00:51:38;;;;;;;18.10;14.18;;;;;;;30.40;77.86;100882.97;4917548;28;65621;-35
2023/09/07 00:54:08;;;;;;;17.70;12.95;;;;;;;30.46;75.06;100873.97;4897950;28;70159;-35
2023/09/07 00:56:39;;;;;;;14.20;11.55;;;;;;;30.51;74.04;100876.88;4914071;28;66591;-35
2023/09/07 00:59:11;;;;;;;16.77;11.85;;;;;;;30.57;73.55;100878.69;4918254;28;70164;-34
2023/09/07 01:01:43;;;;;;;;;;;;;;;30.22;74.83;100889.91;4918550;28;66402;-34
2023/09/07 01:04:13;;;;;;;12.13;10.45;;;;;;;30.33;72.80;100849.69;4919378;28;69781;-34
2023/09/07 01:06:56;;;;;;;14.25;10.98;;;;;;;30.63;72.27;100890.53;4928376;28;66653;-35
2023/09/07 01:09:28;;;;;;;11.75;10.40;;;;;;;30.67;71.96;100906.13;4921105;28;69635;-35
2023/09/07 01:11:58;;;;;;;13.13;10.20;;;;;;;30.70;71.86;100902.97;4921664;28;66051;-35
2023/09/07 01:14:28;;;;;;;12.30;10.07;;;;;;;30.64;71.58;100893.00;4908573;28;70421;-34
2023/09/07 01:16:59;;;;;;;10.35;9.32;;;;;;;30.69;71.68;100901.31;4922883;28;66617;-36
2023/09/07 01:19:31;;;;;;;10.45;9.38;;;;;;;30.75;71.44;100909.59;4928334;28;68892;-35
2023/09/07 01:22:03;;;;;;;10.23;9.30;;;;;;;30.79;71.32;100916.25;4906114;28;66353;-35
2023/09/07 01:24:37;;;;;;;10.40;9.35;;;;;;;30.81;71.14;100915.00;4922007;28;70461;-35
2023/09/07 01:27:07;;;;;;;12.88;9.38;;;;;;;30.81;71.20;100912.28;4919203;28;66292;-34
2023/09/07 01:29:37;;;;;;;10.55;9.48;;;;;;;30.85;70.65;100913.53;4897400;28;70404;-33
2023/09/07 01:32:09;;;;;;;9.02;8.25;;;;;;;30.85;70.86;100905.41;4923994;28;64135;-35
2023/09/07 01:34:40;;;;;;;9.23;8.40;;;;;;;30.88;70.78;100909.56;4922565;28;69183;-36
2023/09/07 01:37:10;;;;;;;9.93;8.80;;;;;;;30.84;70.80;100890.22;4911418;28;65821;-36
2023/09/07 01:39:41;;;;;;;11.52;8.23;;;;;;;30.93;70.32;100901.59;4915525;28;70005;-35
2023/09/07 01:42:11;;;;;;;9.02;8.10;;;;;;;30.95;70.44;100896.78;4926357;28;65306;-35
2023/09/07 01:44:43;;;;;;;10.35;8.05;;;;;;;30.95;70.66;100894.06;4915859;28;70295;-35
2023/09/07 01:47:13;;;;;;;8.38;7.57;;;;;;;30.90;70.11;100886.63;4935864;28;66737;-35
2023/09/07 01:49:43;;;;;;;8.98;8.00;;;;;;;30.99;70.53;100895.28;4929120;28;70152;-36
2023/09/07 01:52:13;;;;;;;8.00;7.20;;;;;;;31.01;70.44;100895.91;4921566;28;66284;-33
2023/09/07 01:54:44;;;;;;;8.77;7.93;;;;;;;30.98;70.25;100882.81;4940720;28;71265;-35
2023/09/07 01:57:14;;;;;;;10.05;7.38;;;;;;;31.05;70.27;100883.56;4900196;28;66001;-34
2023/09/07 01:59:44;;;;;;;8.85;7.65;;;;;;;31.07;70.25;100892.31;4885279;28;70046;-34
2023/09/07 02:02:14;;;;;;;8.00;7.22;;;;;;;31.10;69.91;100886.44;4913270;28;66077;-35
2023/09/07 02:04:45;;;;;;;7.47;6.82;;;;;;;31.10;70.04;100881.03;4933596;28;69631;-36
2023/09/07 02:07:15;;;;;;;7.13;6.43;;;;;;;31.12;70.21;100881.66;4902571;28;66325;-35
2023/09/07 02:09:45;;;;;;;7.72;7.03;;;;;;;31.15;70.08;100883.09;4904193;28;69626;-37
2023/09/07 02:12:16;;;;;;;7.97;7.28;;;;;;;31.14;69.64;100876.81;4921322;28;66327;-35
2023/09/07 02:14:46;;;;;;;7.30;6.57;;;;;;;31.21;69.75;100884.06;4920673;28;69531;-36
2023/09/07 02:17:17;;;;;;;10.50;6.70;;;;;;;31.22;69.64;100873.00;4904454;28;65303;-39
2023/09/07 02:19:48;;;;;;;10.82;6.43;;;;;;;31.22;69.75;100872.16;4925032;28;70404;-35
2023/09/07 02:22:23;;;;;;;6.47;5.97;;;;;;;31.27;69.67;100870.44;4913119;28;66262;-37
2023/09/07 02:24:53;;;;;;;7.03;6.35;;;;;;;31.16;69.63;100860.34;4892744;28;69768;-36
2023/09/07 02:27:23;;;;;;;7.53;6.93;;;;;;;31.30;69.44;100875.41;4899684;28;66205;-34
2023/09/07 02:29:53;;;;;;;7.47;6.55;;;;;;;31.35;69.44;100880.19;4933870;28;69993;-36
2023/09/07 02:32:24;;;;;;;7.65;7.00;;;;;;;31.36;69.44;100874.56;4921522;28;66770;-35
2023/09/07 02:34:54;;;;;;;7.10;6.50;;;;;;;31.38;69.02;100866.22;4929630;28;69909;-35
2023/09/07 02:37:24;;;;;;;7.45;6.95;;;;;;;31.38;68.96;100869.75;4898360;28;66026;-35
2023/09/07 02:39:55;;;;;;;8.77;6.20;;;;;;;31.42;69.14;100867.41;4899506;28;70288;-35
2023/09/07 02:42:25;;;;;;;6.80;6.30;;;;;;;31.44;69.00;100881.56;4920010;28;65540;-34
2023/09/07 02:44:55;;;;;;;6.78;6.28;;;;;;;31.47;69.05;100867.56;4921170;28;69732;-34
2023/09/07 02:47:25;;;;;;;7.85;6.88;;;;;;;31.48;68.96;100865.69;4913768;28;65794;-35
2023/09/07 02:49:55;;;;;;;7.40;6.70;;;;;;;31.51;68.58;100871.50;4914892;28;70287;-34
2023/09/07 02:52:25;;;;;;;7.63;6.22;;;;;;;31.54;68.69;100870.22;4904073;28;66579;-38
2023/09/07 02:54:56;;;;;;;7.13;6.53;;;;;;;31.52;68.76;100851.47;4908433;28;69736;-35
2023/09/07 02:57:26;;;;;;;7.25;6.55;;;;;;;31.58;68.80;100855.97;4904093;28;65401;-38
2023/09/07 02:59:56;;;;;;;7.40;6.75;;;;;;;31.61;68.58;100847.38;4913463;28;69685;-35
2023/09/07 03:02:27;;;;;;;7.55;6.45;;;;;;;31.65;68.60;100849.63;4938431;28;65722;-37
2023/09/07 03:04:58;;;;;;;6.65;6.15;;;;;;;31.65;68.59;100846.94;4919656;28;69129;-34
2023/09/07 03:07:33;;;;;;;7.43;6.70;;;;;;;31.33;68.39;100796.38;4922021;28;65957;-36
2023/09/07 03:10:03;;;;;;;7.38;6.78;;;;;;;31.72;68.39;100855.81;4877425;29;70059;-38
2023/09/07 03:12:34;;;;;;;8.10;7.33;;;;;;;31.72;68.22;100855.81;4908055;28;66488;-35
2023/09/07 03:15:06;;;;;;;7.63;6.15;;;;;;;31.75;68.38;100852.66;4921758;28;69968;-35
2023/09/07 03:17:36;;;;;;;7.23;6.57;;;;;;;31.80;68.24;100863.66;4922165;28;65243;-35
2023/09/07 03:20:16;;;;;;;6.88;6.35;;;;;;;31.82;67.96;100861.56;4921816;28;70409;-35
2023/09/07 03:22:51;;;;;;;6.93;6.25;;;;;;;31.66;68.16;100830.44;4912336;28;65310;-35
2023/09/07 03:25:21;;;;;;;7.53;6.45;;;;;;;31.88;67.68;100855.22;4898598;28;70541;-35
2023/09/07 03:27:52;;;;;;;7.65;6.95;;;;;;;31.92;67.76;100867.28;4927703;28;65538;-36
2023/09/07 03:30:22;;;;;;;6.35;5.82;;;;;;;31.94;67.84;100867.06;4891430;28;70205;-34
2023/09/07 03:32:53;;;;;;;6.53;5.97;;;;;;;31.93;67.83;100868.97;4909433;28;64959;-35
2023/09/07 03:35:26;;;;;;;6.05;5.55;;;;;;;31.95;68.05;100860.56;4938205;28;69926;-35
2023/09/07 03:37:56;;;;;;;6.07;5.65;;;;;;;31.92;67.87;100851.00;4909417;28;66465;-35
2023/09/07 03:40:26;;;;;;;7.03;6.25;;;;;;;31.92;67.78;100840.16;4932604;28;70019;-37
2023/09/07 03:42:56;;;;;;;8.18;5.88;;;;;;;32.00;67.65;100847.16;4931230;28;66297;-35
2023/09/07 03:45:27;;;;;;;7.28;6.50;;;;;;;31.97;67.77;100845.72;4910287;28;69864;-34
2023/09/07 03:47:58;;;;;;;9.00;6.15;;;;;;;32.00;67.72;100850.69;4897283;28;66796;-35
2023/09/07 03:50:28;;;;;;;6.55;6.00;;;;;;;32.01;67.50;100849.66;4913250;28;70570;-35
2023/09/07 03:52:58;;;;;;;7.07;6.53;;;;;;;32.03;67.56;100841.28;4909378;28;66123;-34
2023/09/07 03:55:28;;;;;;;6.25;5.68;;;;;;;32.02;67.81;100835.03;4890040;28;69772;-35
2023/09/07 03:57:59;;;;;;;6.13;5.55;;;;;;;32.06;67.63;100835.38;4927351;28;66206;-35
2023/09/07 04:00:29;;;;;;;6.45;5.82;;;;;;;32.08;67.36;100827.03;4908702;28;69572;-34
2023/09/07 04:02:59;;;;;;;6.50;6.00;;;;;;;32.08;67.30;100822.41;4933639;28;66484;-35
2023/09/07 04:05:29;;;;;;;6.28;5.68;;;;;;;32.04;67.19;100822.06;4909683;28;70050;-35
2023/09/07 04:08:01;;;;;;;6.22;5.82;;;;;;;32.10;67.13;100824.91;4913843;28;65733;-34
2023/09/07 04:10:31;;;;;;;8.68;5.35;;;;;;;32.10;67.19;100833.06;4913810;28;70725;-36
2023/09/07 04:13:01;;;;;;;6.70;5.65;;;;;;;32.11;67.24;100834.72;4929539;28;66361;-35
2023/09/07 04:15:41;;;;;;;6.30;5.72;;;;;;;31.98;67.23;100820.28;4923655;28;69737;-34
2023/09/07 04:18:12;;;;;;;6.05;5.50;;;;;;;32.11;67.12;100826.56;4912581;28;66724;-34
2023/09/07 04:20:43;;;;;;;6.28;5.72;;;;;;;32.10;67.23;100814.06;4906010;28;70359;-35
2023/09/07 04:23:17;;;;;;;5.78;5.38;;;;;;;32.13;67.12;100816.31;4909834;28;66575;-34
2023/09/07 04:25:47;;;;;;;5.20;4.80;;;;;;;32.12;66.95;100815.47;4911017;28;70278;-35
2023/09/07 04:28:17;;;;;;;6.07;5.43;;;;;;;32.15;67.04;100814.19;4896622;28;65586;-35
2023/09/07 04:30:47;;;;;;;5.57;5.18;;;;;;;31.87;67.00;100761.31;4916223;28;70806;-35
2023/09/07 04:33:17;;;;;;;5.50;4.97;;;;;;;32.15;67.01;100806.03;4911092;28;66606;-35
2023/09/07 04:35:47;;;;;;;6.65;5.38;;;;;;;32.16;67.04;100802.28;4917556;28;69209;-34
2023/09/07 04:38:18;;;;;;;6.60;6.05;;;;;;;32.16;66.96;100797.69;4905079;28;66744;-34
2023/09/07 04:40:50;;;;;;;8.98;5.32;;;;;;;32.13;66.93;100786.47;4902866;28;70050;-36
2023/09/07 04:43:20;;;;;;;5.55;5.10;;;;;;;32.19;67.18;100783.63;4918435;28;66558;-36
2023/09/07 04:45:50;;;;;;;6.20;5.60;;;;;;;32.17;66.85;100774.06;4912862;28;70276;-38
2023/09/07 04:48:20;;;;;;;6.30;5.70;;;;;;;32.20;67.00;100777.16;4916586;28;65590;-36
2023/09/07 04:51:05;;;;;;;6.75;5.97;;;;;;;32.18;67.34;100770.28;4915786;28;70279;-39
2023/09/07 04:53:37;;;;;;;5.88;5.47;;;;;;;31.87;67.07;100704.34;4931768;28;66481;-35
2023/09/07 04:56:08;;;;;;;5.63;5.22;;;;;;;32.22;67.13;100758.75;4905814;28;70458;-35
2023/09/07 04:58:39;;;;;;;5.80;5.28;;;;;;;32.23;66.91;100751.44;4905312;28;65874;-36
2023/09/07 05:01:11;;;;;;;9.30;5.70;;;;;;;32.24;66.97;100750.38;4916820;28;69626;-35
2023/09/07 05:03:43;;;;;;;9.40;5.50;;;;;;;32.23;67.10;100749.56;4919740;28;65936;-35
2023/09/07 05:06:13;;;;;;;6.25;5.75;;;;;;;32.19;66.71;100747.53;4920037;28;70542;-35
2023/09/07 05:08:44;;;;;;;5.60;5.18;;;;;;;32.23;66.87;100755.00;4906693;28;66416;-35
2023/09/07 05:11:14;;;;;;;5.75;5.25;;;;;;;32.22;66.91;100745.19;4910473;28;69960;-35
2023/09/07 05:13:44;;;;;;;6.03;5.47;;;;;;;32.22;66.86;100730.78;4899826;28;66342;-35
2023/09/07 05:16:14;;;;;;;5.18;4.78;;;;;;;32.21;66.92;100721.81;4909457;28;69826;-34
2023/09/07 05:18:44;;;;;;;4.70;4.30;;;;;;;32.21;66.91;100716.41;4913866;28;66492;-34
2023/09/07 05:21:15;;;;;;;5.60;5.18;;;;;;;32.22;66.89;100719.94;4905308;28;70221;-38
2023/09/07 05:23:47;;;;;;;5.88;5.15;;;;;;;32.20;67.16;100711.19;4920688;28;66509;-36
2023/09/07 05:26:24;;;;;;;5.60;5.13;;;;;;;32.12;67.55;100714.22;4928467;28;70692;-36
2023/09/07 05:28:55;;;;;;;5.20;4.80;;;;;;;32.13;66.78;100702.34;4900200;28;66154;-35
2023/09/07 05:31:26;;;;;;;5.90;5.40;;;;;;;32.19;67.03;100698.69;4915260;28;70014;-36
2023/09/07 05:33:58;;;;;;;5.72;5.32;;;;;;;32.20;66.96;100692.19;4896237;28;66025;-35
2023/09/07 05:36:29;;;;;;;6.25;5.13;;;;;;;32.21;67.16;100694.69;4903484;28;69571;-36
2023/09/07 05:39:02;;;;;;;5.40;4.88;;;;;;;32.13;66.93;100678.75;4895674;28;66462;-35
2023/09/07 05:41:33;;;;;;;5.60;5.20;;;;;;;32.20;67.30;100675.91;4899262;28;70151;-36
2023/09/07 05:44:04;;;;;;;5.63;5.13;;;;;;;32.21;67.20;100680.28;4922744;28;65696;-36
2023/09/07 05:46:34;;;;;;;5.20;4.70;;;;;;;32.22;67.14;100673.78;4919980;28;69711;-36
2023/09/07 05:49:04;;;;;;;5.30;4.88;;;;;;;32.24;67.08;100674.38;4875590;28;65839;-36
2023/09/07 05:51:35;;;;;;;5.20;4.80;;;;;;;32.25;67.04;100667.91;4891416;28;70659;-35
2023/09/07 05:54:05;;;;;;;5.05;4.65;;;;;;;32.23;67.33;100657.28;4925766;28;66370;-36
2023/09/07 05:56:36;;;;;;;5.53;4.85;;;;;;;32.24;67.22;100663.53;4917483;28;70521;-35
2023/09/07 05:59:06;;;;;;;5.15;4.78;;;;;;;32.25;67.09;100659.75;4891144;28;65833;-35
2023/09/07 06:01:36;;;;;;;4.75;4.45;;;;;;;32.26;67.34;100666.81;4886642;28;69927;-36
2023/09/07 06:04:07;;;;;;;5.40;4.90;;;;;;;32.27;67.31;100657.63;4916814;28;65671;-35
2023/09/07 06:06:38;;;;;;;5.23;4.77;;;;;;;32.23;67.18;100648.28;4908736;28;70424;-35
2023/09/07 06:09:07;;;;;;;4.85;4.53;;;;;;;32.26;67.26;100645.09;4919119;28;66548;-34
2023/09/07 06:11:38;;;;;;;5.82;5.32;;;;;;;32.30;67.17;100648.19;4920417;28;70383;-34
2023/09/07 06:14:11;;;;;;;8.63;5.40;;;;;;;32.30;67.28;100640.88;4917526;28;66371;-36
2023/09/07 06:16:41;;;;;;;5.82;5.20;;;;;;;32.23;67.20;100641.00;4916649;28;69674;-35
2023/09/07 06:19:12;;;;;;;5.32;4.93;;;;;;;32.31;67.18;100647.94;4890491;28;66157;-34
2023/09/07 06:21:42;;;;;;;5.60;4.72;;;;;;;32.30;67.31;100657.16;4887727;28;69756;-35
2023/09/07 06:24:14;;;;;;;8.48;5.25;;;;;;;32.31;67.34;100647.13;4919121;28;66460;-36
2023/09/07 06:26:46;;;;;;;7.67;5.70;;;;;;;32.30;67.38;100637.34;4916855;28;71798;-35
2023/09/07 06:29:16;;;;;;;5.20;4.80;;;;;;;32.29;67.49;100639.22;4899760;28;66383;-35
2023/09/07 06:31:49;;;;;;;5.00;4.57;;;;;;;32.27;67.36;100630.50;4911180;28;70501;-36
2023/09/07 06:34:22;;;;;;;5.35;4.95;;;;;;;32.11;67.50;100593.19;4885665;28;66544;-34
2023/09/07 06:36:52;;;;;;;5.88;5.28;;;;;;;32.31;67.38;100615.38;4919376;28;70417;-35
2023/09/07 06:39:22;;;;;;;5.57;5.07;;;;;;;32.28;67.68;100605.00;4904163;28;66254;-35
2023/09/07 06:41:52;;;;;;;5.90;5.50;;;;;;;32.31;67.68;100606.41;4911338;28;71136;-34
2023/09/07 06:44:26;;;;;;;5.60;5.20;;;;;;;32.35;67.55;100611.13;4910956;28;66963;-34
2023/09/07 06:46:57;;;;;;;5.30;4.90;;;;;;;32.36;67.45;100617.38;4896482;28;70281;-35
2023/09/07 06:49:29;;;;;;;5.60;5.15;;;;;;;32.36;67.45;100620.91;4894615;28;66534;-34
2023/09/07 06:52:00;;;;;;;5.82;5.32;;;;;;;32.26;67.51;100604.41;4902377;28;70282;-34
2023/09/07 06:54:30;;;;;;;5.45;4.88;;;;;;;32.34;67.57;100611.38;4907365;28;66923;-35
2023/09/07 06:57:01;;;;;;;5.70;5.30;;;;;;;32.26;67.49;100607.09;4898558;28;71260;-35
2023/09/07 06:59:32;;;;;;;6.10;5.50;;;;;;;32.35;67.51;100616.56;4907077;28;67165;-34
2023/09/07 07:02:04;;;;;;;5.95;5.45;;;;;;;32.36;67.58;100620.09;4897942;28;70323;-35
2023/09/07 07:04:35;;;;;;;5.45;4.95;;;;;;;32.35;67.50;100622.00;4907139;28;65684;-36
2023/09/07 07:07:05;;;;;;;5.57;5.18;;;;;;;32.35;67.91;100623.91;4900855;28;69985;-35
2023/09/07 07:09:36;;;;;;;5.90;5.50;;;;;;;32.33;67.82;100615.16;4904133;28;65767;-35
2023/09/07 07:12:06;;;;;;;5.90;5.50;;;;;;;32.34;67.71;100612.19;4904900;28;70415;-35
2023/09/07 07:14:37;;;;;;;6.40;5.90;;;;;;;32.34;67.90;100603.22;4910805;28;66082;-35
2023/09/07 07:17:07;;;;;;;7.68;7.00;;;;;;;32.36;67.64;100601.09;4917935;28;70492;-36
2023/09/07 07:19:38;;;;;;;6.90;6.40;;;;;;;32.37;67.79;100592.69;4917956;28;66206;-35
2023/09/07 07:22:08;;;;;;;8.00;7.30;;;;;;;32.28;67.75;100573.25;4920062;28;70531;-35
2023/09/07 07:24:40;;;;;;;7.43;6.90;;;;;;;32.35;67.58;100581.28;4908921;28;66857;-35
2023/09/07 07:27:11;;;;;;;8.07;7.38;;;;;;;32.41;67.57;100576.78;4878007;29;69276;-34
2023/09/07 07:29:41;;;;;;;7.80;7.10;;;;;;;32.35;67.39;100556.84;4890710;28;66255;-35
2023/09/07 07:32:11;;;;;;;7.78;7.05;;;;;;;32.46;67.40;100563.38;4922702;28;70736;-35
2023/09/07 07:34:43;;;;;;;7.40;6.80;;;;;;;32.43;67.57;100552.91;4901557;28;66306;-35
2023/09/07 07:37:13;;;;;;;7.95;7.35;;;;;;;32.48;67.61;100553.91;4902108;28;70741;-35
2023/09/07 07:39:44;;;;;;;9.73;8.23;;;;;;;32.48;67.41;100553.91;4902845;28;66067;-35
2023/09/07 07:42:15;;;;;;;8.10;7.50;;;;;;;32.49;67.50;100547.41;4915357;28;70165;-35
2023/09/07 07:44:45;;;;;;;8.82;8.10;;;;;;;32.51;67.73;100540.91;4902482;28;65301;-33
2023/09/07 07:47:16;;;;;;;9.13;8.43;;;;;;;32.53;67.58;100536.06;4902345;28;70216;-35
2023/09/07 07:49:46;;;;;;;9.48;8.70;;;;;;;32.53;67.55;100536.06;4910668;28;67025;-35
2023/09/07 07:52:16;;;;;;;9.23;8.48;;;;;;;32.55;67.36;100531.22;4908330;28;70427;-35
2023/09/07 07:54:46;;;;;;;10.38;9.48;;;;;;;32.50;67.32;100523.78;4913253;28;66210;-35
2023/09/07 07:57:17;;;;;;;11.73;10.57;;;;;;;32.56;67.70;100530.16;4901891;28;70017;-35
2023/09/07 07:59:47;;;;;;;11.07;10.18;;;;;;;32.58;67.50;100530.75;4923924;28;65335;-37
2023/09/07 08:02:17;;;;;;;11.05;9.95;;;;;;;32.59;67.47;100529.66;4901967;28;70110;-36
2023/09/07 08:04:47;;;;;;;11.63;10.63;;;;;;;32.62;67.69;100515.59;4914718;28;65518;-36
2023/09/07 08:07:18;;;;;;;13.70;10.15;;;;;;;32.54;67.66;100503.25;4910807;28;70479;-34
2023/09/07 08:09:48;;;;;;;11.55;10.45;;;;;;;32.66;67.54;100519.50;4922204;28;66175;-36
2023/09/07 08:12:19;;;;;;;12.13;11.20;;;;;;;32.67;67.44;100527.41;4923896;28;71182;-35
2023/09/07 08:14:49;;;;;;;13.85;12.55;;;;;;;32.68;67.45;100503.78;4908224;28;65275;-35
2023/09/07 08:17:20;;;;;;;15.95;12.70;;;;;;;32.71;67.36;100500.59;4896913;28;69936;-35
2023/09/07 08:19:55;;;;;;;14.60;12.98;;;;;;;32.70;67.37;100488.06;4907862;28;66029;-35
2023/09/07 08:22:27;;;;;;;15.13;13.60;;;;;;;32.71;67.47;100489.75;4919211;28;69996;-35
2023/09/07 08:24:59;;;;;;;14.77;13.45;;;;;;;32.72;67.25;100475.09;4891522;28;67118;-35
2023/09/07 08:27:30;;;;;;;17.67;15.27;;;;;;;32.73;67.64;100476.72;4929082;28;69850;-33
2023/09/07 08:30:00;;;;;;;16.75;14.93;;;;;;;32.73;67.71;100465.84;4912190;28;66229;-34
2023/09/07 08:32:30;;;;;;;18.55;15.45;;;;;;;32.72;67.41;100456.06;4932844;28;70391;-34
2023/09/07 08:35:01;;;;;;;19.80;16.42;;;;;;;32.74;67.52;100462.09;4928302;28;66365;-35
2023/09/07 08:37:31;;;;;;;22.92;17.92;;;;;;;32.73;67.33;100460.41;4891347;28;69599;-35
2023/09/07 08:40:03;;;;;;;18.38;16.50;;;;;;;32.72;67.36;100458.78;4935928;28;66365;-34
2023/09/07 08:42:33;;;;;;;;;;;;;;;32.42;68.83;100459.81;4938769;28;69652;-34
2023/09/07 08:45:07;;;;;;;21.60;17.52;;;;;;;32.68;67.68;100458.44;4929418;28;66562;-35
2023/09/07 08:47:39;;;;;;;23.00;18.77;;;;;;;32.71;67.68;100451.72;4931801;28;70624;-35
2023/09/07 08:50:11;;;;;;;22.60;18.20;;;;;;;32.72;67.85;100453.34;4908507;28;66288;-35
2023/09/07 08:52:45;;;;;;;21.50;19.13;;;;;;;32.71;68.12;100452.53;4915711;28;70142;-34
2023/09/07 08:55:15;;;;;;;21.45;18.90;;;;;;;32.69;67.81;100448.41;4934066;28;66361;-34
2023/09/07 08:57:45;;;;;;;21.45;19.20;;;;;;;32.74;67.54;100461.28;4927516;28;70440;-36
2023/09/07 09:00:16;;;;;;;25.08;20.30;;;;;;;32.72;67.67;100464.22;4930009;28;66492;-34
2023/09/07 09:02:47;;;;;;;22.92;20.20;;;;;;;32.66;67.86;100448.91;4923388;28;69885;-35
2023/09/07 09:05:21;;;;;;;23.42;20.48;;;;;;;32.62;67.78;100431.44;4934700;28;66899;-35
2023/09/07 09:08:02;;;;;;;27.30;21.40;;;;;;;32.68;67.98;100446.75;4927470;28;70347;-35
2023/09/07 09:10:33;;;;;;;24.30;21.30;;;;;;;32.70;67.47;100453.59;4921134;28;66430;-35
2023/09/07 09:13:03;;;;;;;23.45;20.95;;;;;;;32.71;67.74;100465.28;4888567;28;69909;-35
2023/09/07 09:15:33;;;;;;;23.83;21.33;;;;;;;32.70;67.67;100471.78;4925829;28;64959;-35
2023/09/07 09:18:13;;;;;;;27.13;22.85;;;;;;;32.67;67.94;100474.97;4908803;28;70485;-34
2023/09/07 09:20:44;;;;;;;30.10;23.08;;;;;;;32.72;67.95;100472.38;4919111;28;67038;-34
2023/09/07 09:23:15;;;;;;;29.60;23.30;;;;;;;32.68;67.95;100473.91;4928570;28;70373;-35
2023/09/07 09:25:49;;;;;;;29.38;23.38;;;;;;;32.69;68.21;100478.28;4913400;28;65950;-36
2023/09/07 09:28:19;;;;;;;32.17;25.42;;;;;;;32.48;70.63;100477.91;4917474;28;69513;-35
2023/09/07 09:30:49;;;;;;;32.47;25.70;;;;;;;32.35;71.53;100470.00;4908396;28;66556;-34
2023/09/07 09:33:23;;;;;;;31.42;26.35;;;;;;;32.35;71.96;100475.41;4923705;28;69725;-34
2023/09/07 09:35:54;;;;;;;35.25;26.90;;;;;;;32.32;72.56;100475.03;4921590;28;66481;-34
2023/09/07 09:38:26;;;;;;;32.85;26.02;;;;;;;32.30;72.58;100472.59;4904305;28;68918;-36
2023/09/07 09:40:56;;;;;;;30.70;25.02;;;;;;;32.28;72.71;100475.53;4908716;28;65171;-34
2023/09/07 09:43:27;;;;;;;30.50;23.75;;;;;;;32.27;72.90;100476.59;4904859;28;70201;-35
2023/09/07 09:45:59;;;;;;;33.10;24.90;;;;;;;32.26;73.22;100471.41;4915055;28;66449;-35
2023/09/07 09:48:31;;;;;;;35.35;24.13;;;;;;;32.25;73.31;100486.06;4917280;28;70502;-35
2023/09/07 09:51:04;;;;;;;34.42;24.95;;;;;;;32.09;73.70;100465.06;4918235;28;66562;-35
2023/09/07 09:53:36;;;;;;;36.53;26.40;;;;;;;32.16;73.75;100482.06;4920470;28;69538;-36
2023/09/07 09:56:06;;;;;;;32.85;26.75;;;;;;;32.22;74.17;100497.38;4911176;28;66477;-35
2023/09/07 09:58:38;;;;;;;33.28;26.20;;;;;;;32.20;74.01;100494.06;4919590;28;70075;-36
2023/09/07 10:01:13;;;;;;;33.45;25.75;;;;;;;32.22;74.42;100497.38;4891096;28;65164;-36
2023/09/07 10:03:49;;;;;;;33.20;25.02;;;;;;;32.20;74.46;100488.66;4924320;28;69644;-35
2023/09/07 10:06:29;;;;;;;32.58;23.60;;;;;;;32.21;74.48;100493.03;4923354;28;66292;-35
2023/09/07 10:09:10;;;;;;;30.83;23.58;;;;;;;32.20;75.12;100484.03;4926291;28;69224;-35
2023/09/07 10:11:40;;;;;;;31.75;21.67;;;;;;;32.17;75.40;100484.53;4930792;28;66649;-34
2023/09/07 10:14:12;;;;;;;26.45;22.42;;;;;;;32.19;75.30;100474.25;4923754;28;69945;-36
2023/09/07 10:16:48;;;;;;;25.98;22.52;;;;;;;32.23;75.59;100488.16;4925580;28;65201;-35
2023/09/07 10:19:26;;;;;;;24.73;17.73;;;;;;;32.23;75.45;100480.03;4921641;28;70183;-35
2023/09/07 10:21:57;;;;;;;21.33;16.77;;;;;;;32.18;75.19;100472.63;4921305;28;66486;-35
2023/09/07 10:24:28;;;;;;;17.27;14.60;;;;;;;32.26;75.00;100487.69;4905486;28;69657;-34
2023/09/07 10:27:04;;;;;;;18.83;14.52;;;;;;;32.25;75.58;100486.06;4919179;28;66109;-36
2023/09/07 10:29:42;;;;;;;15.02;13.40;;;;;;;31.85;75.44;100426.28;4920002;28;70275;-35
2023/09/07 10:32:16;;;;;;;18.00;13.85;;;;;;;32.20;75.42;100483.22;4921852;28;66467;-36
2023/09/07 10:34:48;;;;;;;13.90;11.52;;;;;;;32.31;73.87;100487.81;4923489;28;70288;-35
2023/09/07 10:37:19;;;;;;;12.18;10.98;;;;;;;32.42;73.03;100497.81;4922259;28;66314;-38
2023/09/07 10:39:50;;;;;;;12.63;11.40;;;;;;;32.48;72.73;100502.31;4928980;28;71007;-37
2023/09/07 10:42:25;;;;;;;12.23;11.13;;;;;;;32.53;72.43;100512.44;4925924;28;65258;-36
2023/09/07 10:44:55;;;;;;;12.02;10.93;;;;;;;32.55;72.13;100514.94;4921699;28;70086;-36
2023/09/07 10:47:25;;;;;;;11.48;10.52;;;;;;;32.56;71.72;100509.25;4924659;28;66763;-40
2023/09/07 10:49:58;;;;;;;11.18;10.30;;;;;;;32.61;71.99;100522.13;4920842;28;69343;-36
2023/09/07 10:52:29;;;;;;;12.02;10.88;;;;;;;32.64;71.75;100540.63;4919616;28;64838;-35
2023/09/07 10:54:59;;;;;;;12.52;11.27;;;;;;;32.59;71.79;100507.94;4922890;28;70094;-36
2023/09/07 10:57:29;;;;;;;11.85;10.85;;;;;;;32.33;71.65;100469.41;4921907;28;65851;-36
2023/09/07 10:59:59;;;;;;;13.85;11.20;;;;;;;32.67;71.49;100526.56;4908825;28;68788;-37
2023/09/07 11:02:30;;;;;;;10.90;9.85;;;;;;;32.67;71.22;100532.00;4906251;28;66176;-37
2023/09/07 11:05:00;;;;;;;12.90;11.07;;;;;;;32.68;71.00;100533.66;4923639;28;70344;-38
2023/09/07 11:07:31;;;;;;;11.07;10.10;;;;;;;32.68;71.31;100539.06;4909215;28;66282;-36
2023/09/07 11:10:04;;;;;;;10.93;9.95;;;;;;;32.67;71.06;100548.31;4928860;28;70162;-35
2023/09/07 11:12:38;;;;;;;11.15;9.75;;;;;;;32.67;71.27;100548.31;4927303;28;65650;-36
2023/09/07 11:15:10;;;;;;;11.98;10.45;;;;;;;32.68;71.16;100552.66;4924892;28;69467;-35
2023/09/07 11:17:40;;;;;;;11.38;9.80;;;;;;;32.62;71.18;100546.28;4932964;28;65821;-36
2023/09/07 11:20:11;;;;;;;11.43;10.32;;;;;;;32.61;71.04;100555.53;4919681;28;69286;-36
2023/09/07 11:22:42;;;;;;;11.45;10.25;;;;;;;32.64;70.73;100573.22;4912483;28;67111;-37
2023/09/07 11:25:39;;;;;;;11.85;10.68;;;;;;;32.58;71.36;100582.34;4916118;28;70220;-36
2023/09/07 11:28:11;;;;;;;13.75;10.35;;;;;;;32.62;71.00;100586.22;4896148;28;65825;-41
2023/09/07 11:30:54;;;;;;;11.33;10.33;;;;;;;32.53;71.01;100584.94;4917850;28;70073;-37
2023/09/07 11:33:25;;;;;;;10.43;9.18;;;;;;;32.60;70.88;100589.19;4917470;28;65730;-36
2023/09/07 11:35:55;;;;;;;16.13;10.50;;;;;;;32.59;70.90;100583.97;4909472;28;70217;-38
2023/09/07 11:38:30;;;;;;;11.00;9.77;;;;;;;32.57;70.71;100602.41;4898941;28;66223;-37